sensor_id;sensor_type;location;lat;lon;timestamp;temperature;humidity
5128;DHT22;2582;48.770;9.190;2023-06-22T00:00:58;23.00;99.90
5128;DHT22;2582;48.770;9.190;2023-06-22T00:03:25;23.00;99.90
5128;DHT22;2582;48.770;9.190;2023-06-22T00:05:51;22.90;99.90
5128;DHT22;2582;48.770;9.190;2023-06-22T00:08:17;22.80;99.90
5128;DHT22;2582;48.770;9.190;2023-06-22T00:10:44;22.80;99.90
5128;DHT22;2582;48.770;9.190;2023-06-22T00:13:10;22.80;99.90
5128;DHT22;2582;48.770;9.190;2023-06-22T00:15:37;22.90;99.90
5128;DHT22;2582;48.770;9.190;2023-06-22T00:18:03;22.90;99.90
5128;DHT22;2582;48.770;9.190;2023-06-22T00:20:29;22.90;99.90
5128;DHT22;2582;48.770;9.190;2023-06-22T00:22:56;23.00;99.90
5128;DHT22;2582;48.770;9.190;2023-06-22T00:25:22;23.00;99.90
5128;DHT22;2582;48.770;9.190;2023-06-22T00:27:48;22.80;99.90
5128;DHT22;2582;48.770;9.190;2023-06-22T00:30:15;22.90;99.90
5128;DHT22;2582;48.770;9.190;2023-06-22T00:32:41;23.00;99.90
5128;DHT22;2582;48.770;9.190;2023-06-22T00:35:07;23.00;99.90
5128;DHT22;2582;48.770;9.190;2023-06-22T00:37:33;23.00;99.90
5128;DHT22;2582;48.770;9.190;2023-06-22T00:39:58;23.00;99.90
5128;DHT22;2582;48.770;9.190;2023-06-22T00:42:24;23.00;99.90
5128;DHT22;2582;48.770;9.190;2023-06-22T00:44:50;23.00;99.90
5128;DHT22;2582;48.770;9.190;2023-06-22T00:47:17;22.90;99.90
5128;DHT22;2582;48.770;9.190;2023-06-22T00:49:43;22.80;99.90
5128;DHT22;2582;48.770;9.190;2023-06-22T00:52:09;22.80;99.90
5128;DHT22;2582;48.770;9.190;2023-06-22T00:54:42;22.80;99.90
5128;DHT22;2582;48.770;9.190;2023-06-22T00:57:11;22.90;99.90
5128;DHT22;2582;48.770;9.190;2023-06-22T00:59:37;22.80;99.90
5128;DHT22;2582;48.770;9.190;2023-06-22T01:02:05;22.80;99.90
5128;DHT22;2582;48.770;9.190;2023-06-22T01:04:38;22.80;99.90
5128;DHT22;2582;48.770;9.190;2023-06-22T01:07:21;22.80;99.90
5128;DHT22;2582;48.770;9.190;2023-06-22T01:12:44;22.70;99.90
5128;DHT22;2582;48.770;9.190;2023-06-22T01:15:15;22.70;99.90
5128;DHT22;2582;48.770;9.190;2023-06-22T01:17:44;22.70;99.90
5128;DHT22;2582;48.770;9.190;2023-06-22T01:20:13;22.70;99.90
5128;DHT22;2582;48.770;9.190;2023-06-22T01:28:47;22.00;99.90
5128;DHT22;2582;48.770;9.190;2023-06-22T01:31:18;22.20;99.90
5128;DHT22;2582;48.770;9.190;2023-06-22T01:33:48;22.20;99.90
5128;DHT22;2582;48.770;9.190;2023-06-22T01:36:14;22.20;99.90
5128;DHT22;2582;48.770;9.190;2023-06-22T01:38:42;22.00;99.90
5128;DHT22;2582;48.770;9.190;2023-06-22T01:41:09;22.00;99.90
5128;DHT22;2582;48.770;9.190;2023-06-22T01:43:35;22.20;99.90
5128;DHT22;2582;48.770;9.190;2023-06-22T01:46:04;22.20;99.90
5128;DHT22;2582;48.770;9.190;2023-06-22T01:48:30;22.10;99.90
5128;DHT22;2582;48.770;9.190;2023-06-22T01:50:57;22.10;99.90
5128;DHT22;2582;48.770;9.190;2023-06-22T01:53:23;22.10;99.90
5128;DHT22;2582;48.770;9.190;2023-06-22T01:55:49;22.10;99.90
5128;DHT22;2582;48.770;9.190;2023-06-22T01:58:15;22.00;99.90
5128;DHT22;2582;48.770;9.190;2023-06-22T02:00:47;21.90;99.90
5128;DHT22;2582;48.770;9.190;2023-06-22T02:03:18;21.90;99.90
5128;DHT22;2582;48.770;9.190;2023-06-22T02:05:56;22.00;99.90
5128;DHT22;2582;48.770;9.190;2023-06-22T02:08:27;22.00;99.90
5128;DHT22;2582;48.770;9.190;2023-06-22T02:10:54;22.00;99.90
5128;DHT22;2582;48.770;9.190;2023-06-22T02:13:23;22.10;99.90
5128;DHT22;2582;48.770;9.190;2023-06-22T02:15:49;22.00;99.90
5128;DHT22;2582;48.770;9.190;2023-06-22T02:18:15;21.90;99.90
5128;DHT22;2582;48.770;9.190;2023-06-22T02:20:41;21.90;99.90
5128;DHT22;2582;48.770;9.190;2023-06-22T02:23:07;21.70;99.90
5128;DHT22;2582;48.770;9.190;2023-06-22T02:25:33;21.60;99.90
5128;DHT22;2582;48.770;9.190;2023-06-22T02:27:59;21.60;99.90
5128;DHT22;2582;48.770;9.190;2023-06-22T02:30:25;21.60;99.90
5128;DHT22;2582;48.770;9.190;2023-06-22T02:32:50;21.70;99.90
5128;DHT22;2582;48.770;9.190;2023-06-22T02:35:27;21.80;99.90
5128;DHT22;2582;48.770;9.190;2023-06-22T02:37:57;21.80;99.90
5128;DHT22;2582;48.770;9.190;2023-06-22T02:40:24;21.70;99.90
5128;DHT22;2582;48.770;9.190;2023-06-22T02:42:49;21.70;99.90
5128;DHT22;2582;48.770;9.190;2023-06-22T02:45:15;21.70;99.90
5128;DHT22;2582;48.770;9.190;2023-06-22T02:47:41;21.70;99.90
5128;DHT22;2582;48.770;9.190;2023-06-22T02:50:06;21.60;99.90
5128;DHT22;2582;48.770;9.190;2023-06-22T02:52:32;21.50;99.90
5128;DHT22;2582;48.770;9.190;2023-06-22T02:54:58;21.30;99.90
5128;DHT22;2582;48.770;9.190;2023-06-22T02:57:23;21.30;99.90
5128;DHT22;2582;48.770;9.190;2023-06-22T02:59:49;21.50;99.90
5128;DHT22;2582;48.770;9.190;2023-06-22T03:02:14;21.60;99.90
5128;DHT22;2582;48.770;9.190;2023-06-22T03:04:40;21.60;99.90
5128;DHT22;2582;48.770;9.190;2023-06-22T03:07:05;21.50;99.90
5128;DHT22;2582;48.770;9.190;2023-06-22T03:09:31;21.50;99.90
5128;DHT22;2582;48.770;9.190;2023-06-22T03:11:57;21.40;99.90
5128;DHT22;2582;48.770;9.190;2023-06-22T03:14:22;21.50;99.90
5128;DHT22;2582;48.770;9.190;2023-06-22T03:16:48;21.60;99.90
5128;DHT22;2582;48.770;9.190;2023-06-22T03:19:14;21.60;99.90
5128;DHT22;2582;48.770;9.190;2023-06-22T03:21:39;21.60;99.90
5128;DHT22;2582;48.770;9.190;2023-06-22T03:24:06;21.50;99.90
5128;DHT22;2582;48.770;9.190;2023-06-22T03:26:32;21.40;99.90
5128;DHT22;2582;48.770;9.190;2023-06-22T03:28:58;21.30;99.90
5128;DHT22;2582;48.770;9.190;2023-06-22T03:31:23;21.30;99.90
5128;DHT22;2582;48.770;9.190;2023-06-22T03:33:49;21.30;99.90
5128;DHT22;2582;48.770;9.190;2023-06-22T03:36:16;21.20;99.90
5128;DHT22;2582;48.770;9.190;2023-06-22T03:38:47;21.20;99.90
5128;DHT22;2582;48.770;9.190;2023-06-22T03:41:13;21.20;99.90
5128;DHT22;2582;48.770;9.190;2023-06-22T03:43:39;21.20;99.90
5128;DHT22;2582;48.770;9.190;2023-06-22T03:46:05;21.40;99.90
5128;DHT22;2582;48.770;9.190;2023-06-22T03:48:30;21.40;99.90
5128;DHT22;2582;48.770;9.190;2023-06-22T03:50:56;21.30;99.90
5128;DHT22;2582;48.770;9.190;2023-06-22T03:53:22;21.20;99.90
5128;DHT22;2582;48.770;9.190;2023-06-22T03:55:49;21.30;99.90
5128;DHT22;2582;48.770;9.190;2023-06-22T03:58:16;21.40;99.90
5128;DHT22;2582;48.770;9.190;2023-06-22T04:00:41;21.40;99.90
5128;DHT22;2582;48.770;9.190;2023-06-22T04:03:07;21.50;99.90
5128;DHT22;2582;48.770;9.190;2023-06-22T04:05:33;21.40;99.90
5128;DHT22;2582;48.770;9.190;2023-06-22T04:07:58;21.40;99.90
5128;DHT22;2582;48.770;9.190;2023-06-22T04:10:24;21.30;99.90
5128;DHT22;2582;48.770;9.190;2023-06-22T04:12:49;21.30;99.90
5128;DHT22;2582;48.770;9.190;2023-06-22T04:15:15;21.40;99.90
5128;DHT22;2582;48.770;9.190;2023-06-22T04:17:40;21.40;99.90
5128;DHT22;2582;48.770;9.190;2023-06-22T04:20:07;21.50;99.90
5128;DHT22;2582;48.770;9.190;2023-06-22T04:22:33;21.60;99.90
5128;DHT22;2582;48.770;9.190;2023-06-22T04:24:58;21.60;99.90
5128;DHT22;2582;48.770;9.190;2023-06-22T04:27:24;21.70;99.90
5128;DHT22;2582;48.770;9.190;2023-06-22T04:29:49;21.70;99.90
5128;DHT22;2582;48.770;9.190;2023-06-22T04:32:16;21.70;99.90
5128;DHT22;2582;48.770;9.190;2023-06-22T04:34:42;21.70;99.90
5128;DHT22;2582;48.770;9.190;2023-06-22T04:37:08;21.90;99.90
5128;DHT22;2582;48.770;9.190;2023-06-22T04:39:34;22.00;99.90
5128;DHT22;2582;48.770;9.190;2023-06-22T04:41:59;22.10;99.90
5128;DHT22;2582;48.770;9.190;2023-06-22T04:44:26;22.20;99.90
5128;DHT22;2582;48.770;9.190;2023-06-22T04:46:57;22.30;99.90
5128;DHT22;2582;48.770;9.190;2023-06-22T04:49:26;22.40;99.90
5128;DHT22;2582;48.770;9.190;2023-06-22T04:52:05;22.40;99.90
5128;DHT22;2582;48.770;9.190;2023-06-22T04:54:31;22.40;99.90
5128;DHT22;2582;48.770;9.190;2023-06-22T04:57:02;22.40;99.90
5128;DHT22;2582;48.770;9.190;2023-06-22T04:59:29;22.40;99.90
5128;DHT22;2582;48.770;9.190;2023-06-22T05:02:01;22.50;99.90
5128;DHT22;2582;48.770;9.190;2023-06-22T05:04:28;22.60;99.90
5128;DHT22;2582;48.770;9.190;2023-06-22T05:06:57;22.60;99.90
5128;DHT22;2582;48.770;9.190;2023-06-22T05:09:23;22.80;99.90
5128;DHT22;2582;48.770;9.190;2023-06-22T05:11:49;22.80;99.90
5128;DHT22;2582;48.770;9.190;2023-06-22T05:14:14;22.90;99.90
5128;DHT22;2582;48.770;9.190;2023-06-22T05:16:41;22.90;99.90
5128;DHT22;2582;48.770;9.190;2023-06-22T05:19:07;23.00;99.90
5128;DHT22;2582;48.770;9.190;2023-06-22T05:21:33;23.20;99.90
5128;DHT22;2582;48.770;9.190;2023-06-22T05:23:59;23.20;99.90
5128;DHT22;2582;48.770;9.190;2023-06-22T05:26:29;23.30;99.90
5128;DHT22;2582;48.770;9.190;2023-06-22T05:28:55;23.50;99.90
5128;DHT22;2582;48.770;9.190;2023-06-22T05:31:21;23.60;99.90
5128;DHT22;2582;48.770;9.190;2023-06-22T05:33:48;23.70;99.90
5128;DHT22;2582;48.770;9.190;2023-06-22T05:36:14;23.50;99.90
5128;DHT22;2582;48.770;9.190;2023-06-22T05:38:40;23.70;99.90
5128;DHT22;2582;48.770;9.190;2023-06-22T05:41:06;23.90;99.90
5128;DHT22;2582;48.770;9.190;2023-06-22T05:43:32;23.80;99.90
5128;DHT22;2582;48.770;9.190;2023-06-22T05:45:59;23.90;99.90
5128;DHT22;2582;48.770;9.190;2023-06-22T05:48:25;24.10;99.90
5128;DHT22;2582;48.770;9.190;2023-06-22T05:50:50;24.20;99.90
5128;DHT22;2582;48.770;9.190;2023-06-22T05:53:16;24.20;99.90
5128;DHT22;2582;48.770;9.190;2023-06-22T05:55:42;24.20;99.90
5128;DHT22;2582;48.770;9.190;2023-06-22T05:58:08;24.10;99.90
5128;DHT22;2582;48.770;9.190;2023-06-22T06:00:34;23.90;99.90
5128;DHT22;2582;48.770;9.190;2023-06-22T06:03:00;23.60;99.90
5128;DHT22;2582;48.770;9.190;2023-06-22T06:05:30;23.50;99.90
5128;DHT22;2582;48.770;9.190;2023-06-22T06:07:56;23.80;99.90
5128;DHT22;2582;48.770;9.190;2023-06-22T06:10:21;23.70;99.90
5128;DHT22;2582;48.770;9.190;2023-06-22T06:12:47;23.60;99.90
5128;DHT22;2582;48.770;9.190;2023-06-22T06:15:12;23.80;99.90
5128;DHT22;2582;48.770;9.190;2023-06-22T06:17:51;23.60;99.90
5128;DHT22;2582;48.770;9.190;2023-06-22T06:20:22;23.60;99.90
5128;DHT22;2582;48.770;9.190;2023-06-22T06:22:48;23.60;99.90
5128;DHT22;2582;48.770;9.190;2023-06-22T06:25:15;23.60;99.90
5128;DHT22;2582;48.770;9.190;2023-06-22T06:27:50;23.60;99.90
5128;DHT22;2582;48.770;9.190;2023-06-22T06:30:17;23.70;99.90
5128;DHT22;2582;48.770;9.190;2023-06-22T06:32:44;23.70;99.90
5128;DHT22;2582;48.770;9.190;2023-06-22T06:35:11;23.90;99.90
5128;DHT22;2582;48.770;9.190;2023-06-22T06:37:39;24.00;99.90
5128;DHT22;2582;48.770;9.190;2023-06-22T06:40:09;23.90;99.90
5128;DHT22;2582;48.770;9.190;2023-06-22T06:42:46;24.00;99.90
5128;DHT22;2582;48.770;9.190;2023-06-22T06:45:20;24.10;99.90
5128;DHT22;2582;48.770;9.190;2023-06-22T06:47:49;24.00;99.90
5128;DHT22;2582;48.770;9.190;2023-06-22T06:50:15;24.20;99.90
5128;DHT22;2582;48.770;9.190;2023-06-22T06:52:40;24.60;99.90
5128;DHT22;2582;48.770;9.190;2023-06-22T06:55:07;24.80;99.90
5128;DHT22;2582;48.770;9.190;2023-06-22T06:57:40;24.90;99.90
5128;DHT22;2582;48.770;9.190;2023-06-22T07:00:10;24.90;99.90
5128;DHT22;2582;48.770;9.190;2023-06-22T07:02:41;25.00;99.90
5128;DHT22;2582;48.770;9.190;2023-06-22T07:05:08;24.80;99.90
5128;DHT22;2582;48.770;9.190;2023-06-22T07:07:34;24.90;99.90
5128;DHT22;2582;48.770;9.190;2023-06-22T07:10:00;25.10;99.90
5128;DHT22;2582;48.770;9.190;2023-06-22T07:12:25;24.90;99.90
5128;DHT22;2582;48.770;9.190;2023-06-22T07:14:52;24.80;99.90
5128;DHT22;2582;48.770;9.190;2023-06-22T07:17:17;24.80;99.90
5128;DHT22;2582;48.770;9.190;2023-06-22T07:19:43;24.70;99.90
5128;DHT22;2582;48.770;9.190;2023-06-22T07:22:09;24.80;99.90
5128;DHT22;2582;48.770;9.190;2023-06-22T07:24:34;24.80;99.90
5128;DHT22;2582;48.770;9.190;2023-06-22T07:27:00;25.00;99.90
5128;DHT22;2582;48.770;9.190;2023-06-22T07:29:27;25.20;99.90
5128;DHT22;2582;48.770;9.190;2023-06-22T07:31:53;25.40;99.90
5128;DHT22;2582;48.770;9.190;2023-06-22T07:34:21;25.60;99.90
5128;DHT22;2582;48.770;9.190;2023-06-22T07:36:47;25.80;99.90
5128;DHT22;2582;48.770;9.190;2023-06-22T07:39:12;25.80;99.90
5128;DHT22;2582;48.770;9.190;2023-06-22T07:41:39;25.90;99.90
5128;DHT22;2582;48.770;9.190;2023-06-22T07:44:06;26.00;99.90
5128;DHT22;2582;48.770;9.190;2023-06-22T07:46:32;26.20;99.90
5128;DHT22;2582;48.770;9.190;2023-06-22T07:48:57;26.40;99.90
5128;DHT22;2582;48.770;9.190;2023-06-22T07:51:23;26.70;99.90
5128;DHT22;2582;48.770;9.190;2023-06-22T07:53:49;26.90;99.90
5128;DHT22;2582;48.770;9.190;2023-06-22T07:56:15;26.90;99.90
5128;DHT22;2582;48.770;9.190;2023-06-22T07:58:45;27.00;99.90
5128;DHT22;2582;48.770;9.190;2023-06-22T08:01:11;27.20;99.90
5128;DHT22;2582;48.770;9.190;2023-06-22T08:03:37;26.80;99.90
5128;DHT22;2582;48.770;9.190;2023-06-22T08:06:02;26.80;99.90
5128;DHT22;2582;48.770;9.190;2023-06-22T08:08:28;26.70;99.90
5128;DHT22;2582;48.770;9.190;2023-06-22T08:10:54;26.60;99.90
5128;DHT22;2582;48.770;9.190;2023-06-22T08:13:19;26.70;99.90
5128;DHT22;2582;48.770;9.190;2023-06-22T08:15:45;26.70;99.90
5128;DHT22;2582;48.770;9.190;2023-06-22T08:18:11;26.90;99.90
5128;DHT22;2582;48.770;9.190;2023-06-22T08:20:36;27.10;99.90
5128;DHT22;2582;48.770;9.190;2023-06-22T08:23:02;27.40;99.90
5128;DHT22;2582;48.770;9.190;2023-06-22T08:25:34;27.10;99.90
5128;DHT22;2582;48.770;9.190;2023-06-22T08:28:01;27.40;99.90
5128;DHT22;2582;48.770;9.190;2023-06-22T08:30:26;27.70;99.90
5128;DHT22;2582;48.770;9.190;2023-06-22T08:32:52;27.60;99.90
5128;DHT22;2582;48.770;9.190;2023-06-22T08:35:19;28.10;99.90
5128;DHT22;2582;48.770;9.190;2023-06-22T08:37:44;28.40;99.90
5128;DHT22;2582;48.770;9.190;2023-06-22T08:40:15;28.90;99.90
5128;DHT22;2582;48.770;9.190;2023-06-22T08:42:41;29.10;99.90
5128;DHT22;2582;48.770;9.190;2023-06-22T08:45:07;29.10;99.90
5128;DHT22;2582;48.770;9.190;2023-06-22T08:47:33;29.10;99.90
5128;DHT22;2582;48.770;9.190;2023-06-22T08:49:58;29.70;99.90
5128;DHT22;2582;48.770;9.190;2023-06-22T08:52:24;29.60;99.90
5128;DHT22;2582;48.770;9.190;2023-06-22T08:54:50;29.40;99.90
5128;DHT22;2582;48.770;9.190;2023-06-22T08:57:16;29.50;99.90
5128;DHT22;2582;48.770;9.190;2023-06-22T08:59:42;29.30;99.90
5128;DHT22;2582;48.770;9.190;2023-06-22T09:02:08;29.30;99.90
5128;DHT22;2582;48.770;9.190;2023-06-22T09:04:33;29.70;99.90
5128;DHT22;2582;48.770;9.190;2023-06-22T09:07:00;30.00;99.90
5128;DHT22;2582;48.770;9.190;2023-06-22T09:09:26;29.80;99.90
5128;DHT22;2582;48.770;9.190;2023-06-22T09:11:52;29.60;99.90
5128;DHT22;2582;48.770;9.190;2023-06-22T09:14:18;30.00;99.90
5128;DHT22;2582;48.770;9.190;2023-06-22T09:16:44;30.10;99.90
5128;DHT22;2582;48.770;9.190;2023-06-22T09:19:09;30.00;99.90
5128;DHT22;2582;48.770;9.190;2023-06-22T09:21:36;30.00;99.90
5128;DHT22;2582;48.770;9.190;2023-06-22T09:24:01;30.00;99.90
5128;DHT22;2582;48.770;9.190;2023-06-22T09:26:27;29.60;99.90
5128;DHT22;2582;48.770;9.190;2023-06-22T09:28:53;29.70;99.90
5128;DHT22;2582;48.770;9.190;2023-06-22T09:31:18;29.50;99.90
5128;DHT22;2582;48.770;9.190;2023-06-22T09:33:51;29.50;99.90
5128;DHT22;2582;48.770;9.190;2023-06-22T09:36:17;29.40;99.90
5128;DHT22;2582;48.770;9.190;2023-06-22T09:38:42;29.80;99.90
5128;DHT22;2582;48.770;9.190;2023-06-22T09:41:08;29.90;99.90
5128;DHT22;2582;48.770;9.190;2023-06-22T09:43:33;30.00;99.90
5128;DHT22;2582;48.770;9.190;2023-06-22T09:46:02;29.80;99.90
5128;DHT22;2582;48.770;9.190;2023-06-22T09:48:28;30.10;99.90
5128;DHT22;2582;48.770;9.190;2023-06-22T09:50:57;30.20;99.90
5128;DHT22;2582;48.770;9.190;2023-06-22T09:53:22;30.10;99.90
5128;DHT22;2582;48.770;9.190;2023-06-22T09:55:48;30.20;99.90
5128;DHT22;2582;48.770;9.190;2023-06-22T09:58:13;30.30;99.90
5128;DHT22;2582;48.770;9.190;2023-06-22T10:00:39;30.60;99.90
5128;DHT22;2582;48.770;9.190;2023-06-22T10:03:06;30.90;99.50
5128;DHT22;2582;48.770;9.190;2023-06-22T10:05:32;31.00;99.30
5128;DHT22;2582;48.770;9.190;2023-06-22T10:07:58;31.00;99.90
5128;DHT22;2582;48.770;9.190;2023-06-22T10:10:23;31.00;99.80
5128;DHT22;2582;48.770;9.190;2023-06-22T10:12:56;31.20;99.90
5128;DHT22;2582;48.770;9.190;2023-06-22T10:15:22;31.60;98.80
5128;DHT22;2582;48.770;9.190;2023-06-22T10:17:48;31.90;98.40
5128;DHT22;2582;48.770;9.190;2023-06-22T10:20:14;32.20;97.90
5128;DHT22;2582;48.770;9.190;2023-06-22T10:22:41;31.90;97.30
5128;DHT22;2582;48.770;9.190;2023-06-22T10:25:07;31.70;98.00
5128;DHT22;2582;48.770;9.190;2023-06-22T10:27:33;31.90;97.20
5128;DHT22;2582;48.770;9.190;2023-06-22T10:29:58;31.70;96.90
5128;DHT22;2582;48.770;9.190;2023-06-22T10:32:24;31.90;97.30
5128;DHT22;2582;48.770;9.190;2023-06-22T10:34:50;32.20;97.20
5128;DHT22;2582;48.770;9.190;2023-06-22T10:37:15;32.30;96.90
5128;DHT22;2582;48.770;9.190;2023-06-22T10:39:41;32.10;96.80
5128;DHT22;2582;48.770;9.190;2023-06-22T10:42:07;31.90;97.70
5128;DHT22;2582;48.770;9.190;2023-06-22T10:44:32;32.40;98.30
5128;DHT22;2582;48.770;9.190;2023-06-22T10:46:58;32.60;96.10
5128;DHT22;2582;48.770;9.190;2023-06-22T10:49:23;32.90;96.40
5128;DHT22;2582;48.770;9.190;2023-06-22T10:51:49;33.30;95.30
5128;DHT22;2582;48.770;9.190;2023-06-22T10:54:14;33.30;94.80
5128;DHT22;2582;48.770;9.190;2023-06-22T10:56:43;33.10;94.50
5128;DHT22;2582;48.770;9.190;2023-06-22T10:59:09;33.00;95.50
5128;DHT22;2582;48.770;9.190;2023-06-22T11:01:35;32.60;96.60
5128;DHT22;2582;48.770;9.190;2023-06-22T11:04:00;32.50;96.40
5128;DHT22;2582;48.770;9.190;2023-06-22T11:06:26;32.30;97.00
5128;DHT22;2582;48.770;9.190;2023-06-22T11:08:51;32.60;96.80
5128;DHT22;2582;48.770;9.190;2023-06-22T11:11:17;32.60;95.80
5128;DHT22;2582;48.770;9.190;2023-06-22T11:13:43;32.70;95.10
5128;DHT22;2582;48.770;9.190;2023-06-22T11:16:10;32.60;95.40
5128;DHT22;2582;48.770;9.190;2023-06-22T11:18:35;32.50;95.30
5128;DHT22;2582;48.770;9.190;2023-06-22T11:21:01;32.40;95.70
5128;DHT22;2582;48.770;9.190;2023-06-22T11:23:27;32.40;95.40
5128;DHT22;2582;48.770;9.190;2023-06-22T11:25:54;32.20;95.90
5128;DHT22;2582;48.770;9.190;2023-06-22T11:28:20;32.40;95.70
5128;DHT22;2582;48.770;9.190;2023-06-22T11:30:45;32.40;96.10
5128;DHT22;2582;48.770;9.190;2023-06-22T11:33:11;32.50;96.00
5128;DHT22;2582;48.770;9.190;2023-06-22T11:35:37;32.40;95.80
5128;DHT22;2582;48.770;9.190;2023-06-22T11:38:02;32.40;96.10
5128;DHT22;2582;48.770;9.190;2023-06-22T11:40:29;32.70;96.60
5128;DHT22;2582;48.770;9.190;2023-06-22T11:42:55;33.30;96.10
5128;DHT22;2582;48.770;9.190;2023-06-22T11:45:20;34.30;95.50
5128;DHT22;2582;48.770;9.190;2023-06-22T11:47:46;34.80;93.20
5128;DHT22;2582;48.770;9.190;2023-06-22T11:50:12;34.60;93.70
5128;DHT22;2582;48.770;9.190;2023-06-22T11:52:37;34.30;93.60
5128;DHT22;2582;48.770;9.190;2023-06-22T11:55:03;34.60;93.40
5128;DHT22;2582;48.770;9.190;2023-06-22T11:57:32;34.50;92.90
5128;DHT22;2582;48.770;9.190;2023-06-22T11:59:58;34.20;93.10
5128;DHT22;2582;48.770;9.190;2023-06-22T12:02:23;34.50;92.80
5128;DHT22;2582;48.770;9.190;2023-06-22T12:04:49;34.50;92.50
5128;DHT22;2582;48.770;9.190;2023-06-22T12:07:18;34.00;93.20
5128;DHT22;2582;48.770;9.190;2023-06-22T12:09:43;34.20;91.80
5128;DHT22;2582;48.770;9.190;2023-06-22T12:12:09;34.30;92.20
5128;DHT22;2582;48.770;9.190;2023-06-22T12:14:35;34.10;92.30
5128;DHT22;2582;48.770;9.190;2023-06-22T12:17:00;34.40;92.10
5128;DHT22;2582;48.770;9.190;2023-06-22T12:19:26;34.50;93.10
5128;DHT22;2582;48.770;9.190;2023-06-22T12:21:51;34.00;92.40
5128;DHT22;2582;48.770;9.190;2023-06-22T12:24:17;34.00;92.50
5128;DHT22;2582;48.770;9.190;2023-06-22T12:26:43;33.80;92.90
5128;DHT22;2582;48.770;9.190;2023-06-22T12:29:08;33.90;93.10
5128;DHT22;2582;48.770;9.190;2023-06-22T12:31:36;33.60;93.30
5128;DHT22;2582;48.770;9.190;2023-06-22T12:34:04;33.40;93.40
5128;DHT22;2582;48.770;9.190;2023-06-22T12:36:29;33.50;93.60
5128;DHT22;2582;48.770;9.190;2023-06-22T12:38:55;33.40;93.20
5128;DHT22;2582;48.770;9.190;2023-06-22T12:41:20;33.20;94.30
5128;DHT22;2582;48.770;9.190;2023-06-22T12:43:46;33.30;93.50
5128;DHT22;2582;48.770;9.190;2023-06-22T12:46:12;33.30;93.50
5128;DHT22;2582;48.770;9.190;2023-06-22T12:48:37;33.30;94.50
5128;DHT22;2582;48.770;9.190;2023-06-22T12:51:07;33.30;94.20
5128;DHT22;2582;48.770;9.190;2023-06-22T12:53:33;33.20;95.20
5128;DHT22;2582;48.770;9.190;2023-06-22T12:55:59;33.00;95.50
5128;DHT22;2582;48.770;9.190;2023-06-22T12:58:25;32.80;95.90
5128;DHT22;2582;48.770;9.190;2023-06-22T13:00:50;32.70;96.50
5128;DHT22;2582;48.770;9.190;2023-06-22T13:03:16;32.50;96.00
5128;DHT22;2582;48.770;9.190;2023-06-22T13:05:41;32.70;96.30
5128;DHT22;2582;48.770;9.190;2023-06-22T13:08:07;32.90;96.40
5128;DHT22;2582;48.770;9.190;2023-06-22T13:10:33;32.90;95.70
5128;DHT22;2582;48.770;9.190;2023-06-22T13:12:59;32.80;95.70
5128;DHT22;2582;48.770;9.190;2023-06-22T13:15:29;32.50;96.10
5128;DHT22;2582;48.770;9.190;2023-06-22T13:17:55;32.60;96.80
5128;DHT22;2582;48.770;9.190;2023-06-22T13:20:21;33.00;96.90
5128;DHT22;2582;48.770;9.190;2023-06-22T13:22:47;33.20;96.00
5128;DHT22;2582;48.770;9.190;2023-06-22T13:25:12;33.60;96.20
5128;DHT22;2582;48.770;9.190;2023-06-22T13:27:42;34.00;95.00
5128;DHT22;2582;48.770;9.190;2023-06-22T13:30:09;34.10;94.70
5128;DHT22;2582;48.770;9.190;2023-06-22T13:32:34;34.40;94.50
5128;DHT22;2582;48.770;9.190;2023-06-22T13:35:00;34.60;94.50
5128;DHT22;2582;48.770;9.190;2023-06-22T13:37:26;34.40;92.90
5128;DHT22;2582;48.770;9.190;2023-06-22T13:39:52;34.30;93.70
5128;DHT22;2582;48.770;9.190;2023-06-22T13:42:18;34.30;93.50
5128;DHT22;2582;48.770;9.190;2023-06-22T13:44:43;34.10;92.90
5128;DHT22;2582;48.770;9.190;2023-06-22T13:47:09;34.20;92.80
5128;DHT22;2582;48.770;9.190;2023-06-22T13:49:35;34.10;92.80
5128;DHT22;2582;48.770;9.190;2023-06-22T13:52:00;34.10;92.90
5128;DHT22;2582;48.770;9.190;2023-06-22T13:54:26;33.90;92.40
5128;DHT22;2582;48.770;9.190;2023-06-22T13:56:51;33.90;92.10
5128;DHT22;2582;48.770;9.190;2023-06-22T13:59:17;34.10;92.10
5128;DHT22;2582;48.770;9.190;2023-06-22T14:01:43;34.20;92.20
5128;DHT22;2582;48.770;9.190;2023-06-22T14:04:09;34.20;91.20
5128;DHT22;2582;48.770;9.190;2023-06-22T14:06:35;34.20;91.40
5128;DHT22;2582;48.770;9.190;2023-06-22T14:09:00;34.80;90.90
5128;DHT22;2582;48.770;9.190;2023-06-22T14:11:26;35.30;90.00
5128;DHT22;2582;48.770;9.190;2023-06-22T14:13:51;35.70;90.50
5128;DHT22;2582;48.770;9.190;2023-06-22T14:16:17;36.20;88.30
5128;DHT22;2582;48.770;9.190;2023-06-22T14:18:43;36.80;83.70
5128;DHT22;2582;48.770;9.190;2023-06-22T14:21:08;37.90;78.40
5128;DHT22;2582;48.770;9.190;2023-06-22T14:23:34;38.50;76.60
5128;DHT22;2582;48.770;9.190;2023-06-22T14:25:59;38.80;74.50
5128;DHT22;2582;48.770;9.190;2023-06-22T14:28:25;39.00;73.90
5128;DHT22;2582;48.770;9.190;2023-06-22T14:30:50;38.60;72.10
5128;DHT22;2582;48.770;9.190;2023-06-22T14:33:16;37.90;71.30
5128;DHT22;2582;48.770;9.190;2023-06-22T14:35:41;36.60;74.70
5128;DHT22;2582;48.770;9.190;2023-06-22T14:38:07;36.30;74.30
5128;DHT22;2582;48.770;9.190;2023-06-22T14:40:32;36.40;73.30
5128;DHT22;2582;48.770;9.190;2023-06-22T14:42:58;36.60;71.80
5128;DHT22;2582;48.770;9.190;2023-06-22T14:45:24;37.50;69.70
5128;DHT22;2582;48.770;9.190;2023-06-22T14:47:50;38.20;67.60
5128;DHT22;2582;48.770;9.190;2023-06-22T14:50:15;38.80;62.30
5128;DHT22;2582;48.770;9.190;2023-06-22T14:52:41;38.90;60.80
5128;DHT22;2582;48.770;9.190;2023-06-22T14:55:07;39.20;59.00
5128;DHT22;2582;48.770;9.190;2023-06-22T14:57:33;38.70;56.50
5128;DHT22;2582;48.770;9.190;2023-06-22T14:59:58;38.60;53.80
5128;DHT22;2582;48.770;9.190;2023-06-22T15:02:24;37.50;54.00
5128;DHT22;2582;48.770;9.190;2023-06-22T15:04:49;37.40;53.60
5128;DHT22;2582;48.770;9.190;2023-06-22T15:07:15;37.00;54.40
5128;DHT22;2582;48.770;9.190;2023-06-22T15:09:41;36.50;54.80
5128;DHT22;2582;48.770;9.190;2023-06-22T15:12:08;36.30;54.40
5128;DHT22;2582;48.770;9.190;2023-06-22T15:14:40;35.90;55.50
5128;DHT22;2582;48.770;9.190;2023-06-22T15:17:07;35.80;56.10
5128;DHT22;2582;48.770;9.190;2023-06-22T15:19:35;35.50;56.30
5128;DHT22;2582;48.770;9.190;2023-06-22T15:22:02;35.80;55.70
5128;DHT22;2582;48.770;9.190;2023-06-22T15:24:28;36.00;55.40
5128;DHT22;2582;48.770;9.190;2023-06-22T15:26:53;36.60;53.50
5128;DHT22;2582;48.770;9.190;2023-06-22T15:29:20;36.90;54.00
5128;DHT22;2582;48.770;9.190;2023-06-22T15:31:45;37.50;52.50
5128;DHT22;2582;48.770;9.190;2023-06-22T15:34:13;37.80;53.30
5128;DHT22;2582;48.770;9.190;2023-06-22T15:36:39;37.40;52.60
5128;DHT22;2582;48.770;9.190;2023-06-22T15:39:04;36.90;53.00
5128;DHT22;2582;48.770;9.190;2023-06-22T15:41:30;36.50;51.90
5128;DHT22;2582;48.770;9.190;2023-06-22T15:43:56;36.30;51.90
5128;DHT22;2582;48.770;9.190;2023-06-22T15:46:22;35.90;52.50
5128;DHT22;2582;48.770;9.190;2023-06-22T15:48:47;36.40;53.00
5128;DHT22;2582;48.770;9.190;2023-06-22T15:51:13;36.90;53.40
5128;DHT22;2582;48.770;9.190;2023-06-22T15:53:40;36.70;52.70
5128;DHT22;2582;48.770;9.190;2023-06-22T15:56:05;36.40;52.90
5128;DHT22;2582;48.770;9.190;2023-06-22T15:58:35;36.00;53.60
5128;DHT22;2582;48.770;9.190;2023-06-22T16:01:02;35.60;54.70
5128;DHT22;2582;48.770;9.190;2023-06-22T16:03:28;35.20;55.10
5128;DHT22;2582;48.770;9.190;2023-06-22T16:05:54;35.10;57.30